Terminal Aerodrome Forecast
Issued by NWS Nashville, TN

Home | Current Version | Previous Version | Text Only | Print | Product List | Glossary On
Versions: 1 2 3 4 5 6 7 8 9 10 11 12 13 14 15 16 17 18
723
FTUS44 KOHX 091134
TAFBNA
TAF
KBNA 091134Z 0912/1012 32007KT P6SM -SN SCT015 BKN035
      TEMPO 0912/0916 3SM -SN BR BKN025
     FM100300 30008KT P6SM BKN035
      TEMPO 1003/1007 -SN=

USA.gov is the U.S. government's official web portal to all federal, state and local government web resources and services.